Time;durP1;ratioP1;P1;durP2;ratioP2;P2;SDS_P1;SDS_P2;PMS_P1;PMS_P2;Temp;Humidity;BMP_temperature;BMP_pressure;BME280_temperature;BME280_humidity;BME280_pressure;Samples;Min_cycle;Max_cycle;Signal;HPM_P1;HPM_P2
2022/07/05 00:00:37;;;;;;;15.75;14.25;;;;;;;;;;5032785;28;20436;-70
2022/07/05 00:03:03;;;;;;;14.55;13.05;;;;;;;;;;5042580;28;20356;-70
2022/07/05 00:05:28;;;;;;;15.10;13.60;;;;;;;;;;5042791;28;20399;-71
2022/07/05 00:07:54;;;;;;;15.45;13.90;;;;;;;;;;5043095;28;20032;-70
2022/07/05 00:10:19;;;;;;;15.75;14.25;;;;;;;;;;5042822;28;20033;-70
2022/07/05 00:12:44;;;;;;;15.65;14.13;;;;;;;;;;5042679;28;20065;-70
2022/07/05 00:15:10;;;;;;;17.55;13.98;;;;;;;;;;5042596;28;20032;-70
2022/07/05 00:17:35;;;;;;;16.35;14.65;;;;;;;;;;5042359;28;20051;-69
2022/07/05 00:20:01;;;;;;;18.40;14.68;;;;;;;;;;5029934;28;20500;-70
2022/07/05 00:22:26;;;;;;;15.40;13.80;;;;;;;;;;5041764;28;20071;-69
2022/07/05 00:24:51;;;;;;;17.85;14.05;;;;;;;;;;5041769;28;20047;-69
2022/07/05 00:27:17;;;;;;;19.63;13.57;;;;;;;;;;5041809;28;20440;-69
2022/07/05 00:29:42;;;;;;;18.10;13.93;;;;;;;;;;5042707;28;20075;-70
2022/07/05 00:32:07;;;;;;;23.38;14.45;;;;;;;;;;5042180;28;20032;-70
2022/07/05 00:34:33;;;;;;;17.05;14.10;;;;;;;;;;5041625;28;20106;-70
2022/07/05 00:36:58;;;;;;;17.10;15.30;;;;;;;;;;5031490;28;20116;-69
2022/07/05 00:39:23;;;;;;;18.92;14.02;;;;;;;;;;5042035;28;20017;-71
2022/07/05 00:41:49;;;;;;;19.08;13.07;;;;;;;;;;5042430;28;20025;-71
2022/07/05 00:44:14;;;;;;;16.27;13.13;;;;;;;;;;5040930;28;20028;-69
2022/07/05 00:46:41;;;;;;;15.18;13.68;;;;;;;;;;5041820;28;20440;-70
2022/07/05 00:49:07;;;;;;;15.45;13.73;;;;;;;;;;5041384;28;20112;-70
2022/07/05 00:51:34;;;;;;;16.02;14.32;;;;;;;;;;5041761;28;20203;-70
2022/07/05 00:54:00;;;;;;;13.98;12.63;;;;;;;;;;5042546;28;20102;-70
2022/07/05 00:56:25;;;;;;;18.05;14.07;;;;;;;;;;5041791;28;20432;-69
2022/07/05 00:58:51;;;;;;;15.32;13.13;;;;;;;;;;5041018;28;20108;-68
2022/07/05 01:01:17;;;;;;;15.73;14.23;;;;;;;;;;5029588;28;20029;-69
2022/07/05 01:03:43;;;;;;;15.95;14.45;;;;;;;;;;5041053;28;20037;-70
2022/07/05 01:06:10;;;;;;;16.63;13.43;;;;;;;;;;5042346;28;20032;-69
2022/07/05 01:08:37;;;;;;;16.38;14.75;;;;;;;;;;5041054;28;20025;-69
2022/07/05 01:11:03;;;;;;;17.20;14.43;;;;;;;;;;5042048;28;20032;-70
2022/07/05 01:13:29;;;;;;;17.35;15.57;;;;;;;;;;5041104;28;20028;-72
2022/07/05 01:15:55;;;;;;;16.42;14.73;;;;;;;;;;5034139;28;20040;-70
2022/07/05 01:18:20;;;;;;;16.77;15.15;;;;;;;;;;5038806;28;20029;-69
2022/07/05 01:20:48;;;;;;;17.45;15.85;;;;;;;;;;5040051;28;20440;-70
2022/07/05 01:23:13;;;;;;;18.92;15.68;;;;;;;;;;5027106;28;20493;-69
2022/07/05 01:25:38;;;;;;;18.30;16.63;;;;;;;;;;5041231;28;20045;-70
2022/07/05 01:28:04;;;;;;;20.05;15.15;;;;;;;;;;5041106;28;20051;-70
2022/07/05 01:30:30;;;;;;;19.35;17.40;;;;;;;;;;5037232;28;20437;-70
2022/07/05 01:32:55;;;;;;;18.80;16.73;;;;;;;;;;5031948;28;20063;-69
2022/07/05 01:35:21;;;;;;;17.23;15.32;;;;;;;;;;5040416;28;20087;-70
2022/07/05 01:37:49;;;;;;;18.45;16.58;;;;;;;;;;5040184;28;20073;-69
2022/07/05 01:40:15;;;;;;;18.60;16.67;;;;;;;;;;5039930;28;20029;-68
2022/07/05 01:42:40;;;;;;;18.70;16.80;;;;;;;;;;5025480;28;20326;-68
2022/07/05 01:45:06;;;;;;;18.65;16.52;;;;;;;;;;5040679;28;20072;-69
2022/07/05 01:47:36;;;;;;;17.35;15.10;;;;;;;;;;5040803;28;20037;-70
2022/07/05 01:50:02;;;;;;;17.13;15.40;;;;;;;;;;5040528;28;20028;-69
2022/07/05 01:52:29;;;;;;;18.13;16.38;;;;;;;;;;5041181;28;20052;-68
2022/07/05 01:54:55;;;;;;;16.63;15.18;;;;;;;;;;5040127;28;20364;-71
2022/07/05 01:57:20;;;;;;;17.98;16.17;;;;;;;;;;5029044;28;20032;-68
2022/07/05 01:59:45;;;;;;;18.85;15.90;;;;;;;;;;5026874;28;20428;-69
2022/07/05 02:02:11;;;;;;;16.30;14.68;;;;;;;;;;5040631;28;20032;-69
2022/07/05 02:04:36;;;;;;;19.50;17.33;;;;;;;;;;5040480;28;20036;-68
2022/07/05 02:07:05;;;;;;;19.10;17.10;;;;;;;;;;5040694;28;20386;-69
2022/07/05 02:09:31;;;;;;;17.95;14.80;;;;;;;;;;5039505;28;20032;-69
2022/07/05 02:11:56;;;;;;;18.13;16.52;;;;;;;;;;5040578;28;20032;-70
2022/07/05 02:14:21;;;;;;;16.92;15.40;;;;;;;;;;5040235;28;20701;-69
2022/07/05 02:16:47;;;;;;;18.63;16.38;;;;;;;;;;5040172;28;20029;-70
2022/07/05 02:19:12;;;;;;;17.08;15.57;;;;;;;;;;5039402;28;20162;-69
2022/07/05 02:21:38;;;;;;;18.00;15.57;;;;;;;;;;5039372;28;20033;-69
2022/07/05 02:24:03;;;;;;;18.13;14.43;;;;;;;;;;5024667;28;20111;-69
2022/07/05 02:26:28;;;;;;;17.00;15.30;;;;;;;;;;5027025;28;20259;-69
2022/07/05 02:28:54;;;;;;;16.02;14.43;;;;;;;;;;5039967;28;20037;-70
2022/07/05 02:31:20;;;;;;;17.38;15.73;;;;;;;;;;5040306;28;20162;-71
2022/07/05 02:33:45;;;;;;;17.92;15.60;;;;;;;;;;5039365;28;20033;-71
2022/07/05 02:36:12;;;;;;;16.52;15.00;;;;;;;;;;5039474;28;20017;-69
2022/07/05 02:38:37;;;;;;;17.73;16.10;;;;;;;;;;5038730;28;20017;-69
2022/07/05 02:41:06;;;;;;;17.98;15.63;;;;;;;;;;5039794;28;20364;-71
2022/07/05 02:43:32;;;;;;;17.65;15.85;;;;;;;;;;5039757;28;20029;-69
2022/07/05 02:45:57;;;;;;;17.65;15.85;;;;;;;;;;5020049;28;20345;-68
2022/07/05 02:48:22;;;;;;;18.77;16.95;;;;;;;;;;5035912;28;20036;-69
2022/07/05 02:50:48;;;;;;;18.42;16.45;;;;;;;;;;5035137;28;20375;-70
2022/07/05 02:53:13;;;;;;;17.27;15.57;;;;;;;;;;5033558;28;20044;-69
2022/07/05 02:55:39;;;;;;;18.23;16.48;;;;;;;;;;5031977;28;20033;-68
2022/07/05 02:58:04;;;;;;;18.55;16.80;;;;;;;;;;5036556;28;20455;-70
2022/07/05 03:00:29;;;;;;;16.98;15.30;;;;;;;;;;5026808;28;20646;-69
2022/07/05 03:02:55;;;;;;;16.85;15.15;;;;;;;;;;5039677;28;20033;-69
2022/07/05 03:05:20;;;;;;;17.02;15.38;;;;;;;;;;5039294;28;20032;-71
2022/07/05 03:07:45;;;;;;;18.13;16.25;;;;;;;;;;5039792;28;20029;-69
2022/07/05 03:10:11;;;;;;;18.25;16.58;;;;;;;;;;5035091;28;20108;-69
2022/07/05 03:12:36;;;;;;;19.33;17.42;;;;;;;;;;5029973;28;20440;-69
2022/07/05 03:15:01;;;;;;;18.90;17.00;;;;;;;;;;5039983;28;20068;-68
2022/07/05 03:17:27;;;;;;;18.45;16.55;;;;;;;;;;5037896;28;20357;-69
2022/07/05 03:19:52;;;;;;;17.05;15.45;;;;;;;;;;5039764;28;20029;-69
2022/07/05 03:22:17;;;;;;;17.95;16.15;;;;;;;;;;5040477;28;20021;-69
2022/07/05 03:24:43;;;;;;;18.80;16.85;;;;;;;;;;5039769;28;20044;-69
2022/07/05 03:27:08;;;;;;;16.92;15.32;;;;;;;;;;5039702;28;20167;-69
2022/07/05 03:29:33;;;;;;;17.33;15.73;;;;;;;;;;5026068;28;20124;-70
2022/07/05 03:31:59;;;;;;;17.67;15.98;;;;;;;;;;5039745;28;20112;-71
2022/07/05 03:34:24;;;;;;;19.42;17.50;;;;;;;;;;5043346;28;20055;-71
2022/07/05 03:36:50;;;;;;;22.13;16.92;;;;;;;;;;5032399;28;20576;-70
2022/07/05 03:39:15;;;;;;;19.88;18.08;;;;;;;;;;5042762;28;20433;-69
2022/07/05 03:41:40;;;;;;;17.13;15.52;;;;;;;;;;5043331;28;20382;-69
2022/07/05 03:44:06;;;;;;;17.80;16.10;;;;;;;;;;5038008;28;21053;-69
2022/07/05 03:46:31;;;;;;;19.15;16.55;;;;;;;;;;5029499;28;20048;-69
2022/07/05 03:48:56;;;;;;;17.48;15.68;;;;;;;;;;5030556;28;20028;-69
2022/07/05 03:51:22;;;;;;;19.35;17.35;;;;;;;;;;5028916;28;20025;-68
2022/07/05 03:53:47;;;;;;;19.58;15.88;;;;;;;;;;5029282;28;20028;-71
2022/07/05 03:56:12;;;;;;;19.60;17.38;;;;;;;;;;5029753;28;20037;-69
2022/07/05 03:58:38;;;;;;;18.48;16.75;;;;;;;;;;5036520;28;20115;-69
2022/07/05 04:01:03;;;;;;;18.38;16.58;;;;;;;;;;5042392;28;20132;-70
2022/07/05 04:03:28;;;;;;;16.80;14.93;;;;;;;;;;5042858;28;20056;-69
2022/07/05 04:05:54;;;;;;;18.73;16.92;;;;;;;;;;5032115;28;20040;-69
2022/07/05 04:08:19;;;;;;;18.98;16.50;;;;;;;;;;5030640;28;20021;-71
2022/07/05 04:10:44;;;;;;;24.67;16.98;;;;;;;;;;5032705;28;20456;-69
2022/07/05 04:13:10;;;;;;;18.55;16.75;;;;;;;;;;5040261;28;20039;-70
2022/07/05 04:15:35;;;;;;;17.25;15.45;;;;;;;;;;5027512;28;20109;-71
2022/07/05 04:18:00;;;;;;;16.88;15.23;;;;;;;;;;5029637;28;20036;-72
2022/07/05 04:20:26;;;;;;;18.58;16.90;;;;;;;;;;5029316;28;20025;-70
2022/07/05 04:22:51;;;;;;;18.17;16.27;;;;;;;;;;5034815;28;20059;-70
2022/07/05 04:25:17;;;;;;;17.10;15.38;;;;;;;;;;5040354;28;20021;-70
2022/07/05 04:27:46;;;;;;;16.42;14.90;;;;;;;;;;5039537;28;20401;-70
2022/07/05 04:30:12;;;;;;;18.17;16.33;;;;;;;;;;5046222;28;20068;-71
2022/07/05 04:32:37;;;;;;;17.55;15.85;;;;;;;;;;5054620;28;20438;-70
2022/07/05 04:35:03;;;;;;;17.30;15.35;;;;;;;;;;5038330;28;20059;-70
2022/07/05 04:37:28;;;;;;;18.40;16.67;;;;;;;;;;5039825;28;20032;-70
2022/07/05 04:39:53;;;;;;;17.48;15.88;;;;;;;;;;5054337;28;20440;-70
2022/07/05 04:42:19;;;;;;;17.65;15.98;;;;;;;;;;5054014;28;20056;-71
2022/07/05 04:44:44;;;;;;;16.90;15.20;;;;;;;;;;5053085;28;20033;-71
2022/07/05 04:47:09;;;;;;;16.33;14.73;;;;;;;;;;5054092;28;20032;-69
2022/07/05 04:49:35;;;;;;;15.60;13.95;;;;;;;;;;5053624;28;20159;-69
2022/07/05 04:52:00;;;;;;;16.20;14.70;;;;;;;;;;5034975;28;20088;-71
2022/07/05 04:54:26;;;;;;;15.93;14.32;;;;;;;;;;5036431;28;20021;-70
2022/07/05 04:56:51;;;;;;;15.48;13.80;;;;;;;;;;5035795;28;20040;-71
2022/07/05 04:59:16;;;;;;;18.48;15.07;;;;;;;;;;5036162;28;20083;-71
2022/07/05 05:01:42;;;;;;;16.23;14.73;;;;;;;;;;5036048;28;20100;-71
2022/07/05 05:04:07;;;;;;;16.60;15.07;;;;;;;;;;5053632;28;20063;-71
2022/07/05 05:06:32;;;;;;;15.70;14.00;;;;;;;;;;5047736;28;20118;-71
2022/07/05 05:08:58;;;;;;;15.48;14.07;;;;;;;;;;5041486;28;20021;-71
2022/07/05 05:11:23;;;;;;;14.80;13.35;;;;;;;;;;5036416;28;20013;-72
2022/07/05 05:13:48;;;;;;;14.65;13.15;;;;;;;;;;5028651;28;20527;-71
2022/07/05 05:16:14;;;;;;;14.57;13.07;;;;;;;;;;5038113;28;20090;-71
2022/07/05 05:18:39;;;;;;;14.85;13.45;;;;;;;;;;5039626;28;20032;-71
2022/07/05 05:21:05;;;;;;;14.73;13.32;;;;;;;;;;5029983;28;20021;-71
2022/07/05 05:23:30;;;;;;;13.00;11.68;;;;;;;;;;5034506;28;20037;-73
2022/07/05 05:25:55;;;;;;;15.05;13.55;;;;;;;;;;5031920;28;20466;-72
2022/07/05 05:28:21;;;;;;;15.30;13.70;;;;;;;;;;5031018;28;20162;-74
2022/07/05 05:30:46;;;;;;;14.77;13.30;;;;;;;;;;5027447;28;20025;-72
2022/07/05 05:33:12;;;;;;;13.77;12.45;;;;;;;;;;5037805;28;20040;-73
2022/07/05 05:35:37;;;;;;;13.65;12.27;;;;;;;;;;5032208;28;20036;-72
2022/07/05 05:38:03;;;;;;;13.93;12.38;;;;;;;;;;5029181;28;20073;-73
2022/07/05 05:40:28;;;;;;;15.10;12.60;;;;;;;;;;5028349;28;20341;-72
2022/07/05 05:42:55;;;;;;;11.88;10.73;;;;;;;;;;5029207;28;20115;-73
2022/07/05 05:45:21;;;;;;;21.45;10.48;;;;;;;;;;5027642;28;20020;-70
2022/07/05 05:47:51;;;;;;;13.30;9.98;;;;;;;;;;5038445;28;20036;-71
2022/07/05 05:50:27;;;;;;;10.50;9.57;;;;;;;;;;5041041;28;20029;-72
2022/07/05 05:52:53;;;;;;;13.10;9.18;;;;;;;;;;5039671;28;20088;-72
2022/07/05 05:55:18;;;;;;;9.80;8.15;;;;;;;;;;5040840;28;20072;-71
2022/07/05 05:57:44;;;;;;;9.15;7.68;;;;;;;;;;5041316;28;20024;-72
2022/07/05 06:00:10;;;;;;;10.32;7.63;;;;;;;;;;5040401;28;20033;-70
2022/07/05 06:02:35;;;;;;;8.48;7.50;;;;;;;;;;5041379;28;20025;-71
2022/07/05 06:05:01;;;;;;;12.20;10.93;;;;;;;;;;5041215;28;20451;-71
2022/07/05 06:07:26;;;;;;;10.23;9.25;;;;;;;;;;5041724;28;20109;-71
2022/07/05 06:09:51;;;;;;;9.82;7.70;;;;;;;;;;5041883;28;20184;-71
2022/07/05 06:12:17;;;;;;;11.35;7.82;;;;;;;;;;5040718;28;20029;-71
2022/07/05 06:14:42;;;;;;;7.57;6.88;;;;;;;;;;5041051;28;20029;-73
2022/07/05 06:17:07;;;;;;;8.32;6.53;;;;;;;;;;5041852;28;20025;-71
2022/07/05 06:19:33;;;;;;;5.85;4.93;;;;;;;;;;5041212;28;20036;-71
2022/07/05 06:21:58;;;;;;;9.23;4.18;;;;;;;;;;5041577;28;20029;-72
2022/07/05 06:24:23;;;;;;;4.65;4.10;;;;;;;;;;5041585;28;20483;-70
2022/07/05 06:26:49;;;;;;;6.35;4.47;;;;;;;;;;5041532;28;20461;-73
2022/07/05 06:29:14;;;;;;;6.13;4.22;;;;;;;;;;5039708;28;20024;-74
2022/07/05 06:31:39;;;;;;;4.30;3.95;;;;;;;;;;5041005;28;20029;-72
2022/07/05 06:34:05;;;;;;;4.18;3.78;;;;;;;;;;5040468;28;20047;-73
2022/07/05 06:36:30;;;;;;;5.38;3.85;;;;;;;;;;5041001;28;20040;-71
2022/07/05 06:38:55;;;;;;;4.38;3.92;;;;;;;;;;5040890;28;20039;-71
2022/07/05 06:41:21;;;;;;;5.93;4.05;;;;;;;;;;5041058;28;20032;-71
2022/07/05 06:43:46;;;;;;;11.52;4.15;;;;;;;;;;5039898;28;20455;-73
2022/07/05 06:46:11;;;;;;;4.45;3.90;;;;;;;;;;5040714;28;20379;-72
2022/07/05 06:48:37;;;;;;;5.18;3.75;;;;;;;;;;5041607;28;20056;-72
2022/07/05 06:51:02;;;;;;;5.55;3.50;;;;;;;;;;5040938;28;20068;-73
2022/07/05 06:53:27;;;;;;;7.32;3.60;;;;;;;;;;5040951;28;20072;-73
2022/07/05 06:55:53;;;;;;;4.18;3.78;;;;;;;;;;5040535;28;20111;-72
2022/07/05 06:58:18;;;;;;;5.78;3.63;;;;;;;;;;5040671;28;20052;-73
2022/07/05 07:00:44;;;;;;;6.28;3.15;;;;;;;;;;5040840;28;20039;-72
2022/07/05 07:03:09;;;;;;;8.00;3.47;;;;;;;;;;5040553;28;20064;-72
2022/07/05 07:05:35;;;;;;;3.80;3.40;;;;;;;;;;5040879;28;20045;-72
2022/07/05 07:10:44;;;;;;;4.28;3.10;;;;;;;;;;5040814;28;20090;-74
2022/07/05 07:13:09;;;;;;;4.93;3.30;;;;;;;;;;5040185;28;20452;-73
2022/07/05 07:15:35;;;;;;;3.53;3.22;;;;;;;;;;5040332;28;20028;-73
2022/07/05 07:18:01;;;;;;;5.88;3.38;;;;;;;;;;5041124;28;20021;-75
2022/07/05 07:20:26;;;;;;;6.15;3.38;;;;;;;;;;5040324;28;20494;-73
2022/07/05 07:22:52;;;;;;;4.05;3.17;;;;;;;;;;5041128;28;20454;-75
2022/07/05 07:25:20;;;;;;;3.75;2.83;;;;;;;;;;5040078;28;20036;-72
2022/07/05 07:27:46;;;;;;;3.88;3.47;;;;;;;;;;5030712;28;20047;-72
2022/07/05 07:30:12;;;;;;;3.33;3.03;;;;;;;;;;5040107;28;20056;-72
2022/07/05 07:32:37;;;;;;;6.88;5.93;;;;;;;;;;5040790;28;20017;-73
2022/07/05 07:35:03;;;;;;;7.90;6.38;;;;;;;;;;5041507;28;20043;-72
2022/07/05 07:37:28;;;;;;;4.40;4.00;;;;;;;;;;5039882;28;20444;-72
2022/07/05 07:39:54;;;;;;;4.20;2.95;;;;;;;;;;5040162;28;20025;-74
2022/07/05 07:42:19;;;;;;;5.70;4.13;;;;;;;;;;5039753;28;20024;-72
2022/07/05 07:44:44;;;;;;;3.25;2.90;;;;;;;;;;5040280;28;20044;-72
2022/07/05 07:47:10;;;;;;;3.25;2.75;;;;;;;;;;5040607;28;20037;-72
2022/07/05 07:49:36;;;;;;;4.70;3.30;;;;;;;;;;5039399;28;20095;-74
2022/07/05 07:52:02;;;;;;;4.47;3.17;;;;;;;;;;5038676;28;20049;-74
2022/07/05 07:54:27;;;;;;;6.53;3.47;;;;;;;;;;5039733;28;20033;-73
2022/07/05 07:56:52;;;;;;;3.70;3.30;;;;;;;;;;5040697;28;20083;-73
2022/07/05 07:59:18;;;;;;;3.65;3.28;;;;;;;;;;5040030;28;20499;-73
2022/07/05 08:01:43;;;;;;;3.50;3.20;;;;;;;;;;5040336;28;20404;-72
2022/07/05 08:04:08;;;;;;;9.20;3.00;;;;;;;;;;5039502;28;20029;-73
2022/07/05 08:06:34;;;;;;;3.42;3.13;;;;;;;;;;5038998;28;20037;-72
2022/07/05 08:08:59;;;;;;;4.60;3.15;;;;;;;;;;5039707;28;20029;-73
2022/07/05 08:11:24;;;;;;;3.78;3.15;;;;;;;;;;5038897;28;20132;-74
2022/07/05 08:13:50;;;;;;;6.18;3.20;;;;;;;;;;5039440;28;20367;-72
2022/07/05 08:16:15;;;;;;;3.50;3.10;;;;;;;;;;5040455;28;20031;-77
2022/07/05 08:21:30;;;;;;;4.35;3.25;;;;;;;;;;5044333;28;20126;-73
2022/07/05 08:23:57;;;;;;;5.03;3.03;;;;;;;;;;5042887;28;20034;-73
2022/07/05 08:26:22;;;;;;;5.75;3.08;;;;;;;;;;5043970;28;20168;-74
2022/07/05 08:28:47;;;;;;;3.53;3.20;;;;;;;;;;5029198;28;20167;-74
2022/07/05 08:31:13;;;;;;;3.47;3.17;;;;;;;;;;5030856;28;20440;-75
2022/07/05 08:33:38;;;;;;;4.88;3.72;;;;;;;;;;5030885;28;20095;-72
2022/07/05 08:36:04;;;;;;;4.30;3.90;;;;;;;;;;5030928;28;20033;-73
2022/07/05 08:38:29;;;;;;;4.13;3.80;;;;;;;;;;5030984;28;20029;-75
2022/07/05 08:40:55;;;;;;;4.70;3.67;;;;;;;;;;5031989;28;20037;-73
2022/07/05 08:43:21;;;;;;;3.63;3.33;;;;;;;;;;5030828;28;20082;-72
2022/07/05 08:45:48;;;;;;;3.85;3.30;;;;;;;;;;5033061;28;20033;-73
2022/07/05 08:48:15;;;;;;;4.53;3.78;;;;;;;;;;5043235;28;20104;-71
2022/07/05 08:50:41;;;;;;;4.90;3.17;;;;;;;;;;5040716;28;20351;-72
2022/07/05 08:53:06;;;;;;;4.88;3.53;;;;;;;;;;5029798;28;20128;-73
2022/07/05 08:55:32;;;;;;;5.85;3.60;;;;;;;;;;5025348;28;20043;-72
2022/07/05 08:57:58;;;;;;;4.22;3.30;;;;;;;;;;5030404;28;20043;-71
2022/07/05 09:00:23;;;;;;;3.40;3.10;;;;;;;;;;5032231;28;20040;-72
2022/07/05 09:02:50;;;;;;;4.07;3.35;;;;;;;;;;5028941;28;20025;-72
2022/07/05 09:05:18;;;;;;;3.88;3.28;;;;;;;;;;5036017;28;20144;-71
2022/07/05 09:07:46;;;;;;;6.45;3.38;;;;;;;;;;5027349;28;20132;-72
2022/07/05 09:10:12;;;;;;;4.25;3.20;;;;;;;;;;5027851;28;20029;-72
2022/07/05 09:12:37;;;;;;;3.85;3.33;;;;;;;;;;5027466;28;20028;-71
2022/07/05 09:15:04;;;;;;;4.22;2.95;;;;;;;;;;5026773;28;20033;-72
2022/07/05 09:17:30;;;;;;;6.90;3.22;;;;;;;;;;5026840;28;20020;-71
2022/07/05 09:20:24;;;;;;;6.15;4.20;;;;;;;;;;5027831;28;20055;-73
2022/07/05 09:22:53;;;;;;;4.60;4.18;;;;;;;;;;4932076;28;20054;-71
2022/07/05 09:25:20;;;;;;;3.83;3.53;;;;;;;;;;4939606;28;20050;-73
2022/07/05 09:28:03;;;;;;;5.40;3.40;;;;;;;;;;4918962;28;20130;-73
2022/07/05 09:30:30;;;;;;;4.55;3.75;;;;;;;;;;4937244;28;20066;-71
2022/07/05 09:33:10;;;;;;;6.32;3.25;;;;;;;;;;4936274;28;20047;-74
2022/07/05 09:35:40;;;;;;;4.88;3.40;;;;;;;;;;4933417;28;20910;-71
2022/07/05 09:38:06;;;;;;;3.80;3.50;;;;;;;;;;4937255;28;20411;-71
2022/07/05 09:40:46;;;;;;;6.40;3.92;;;;;;;;;;4917432;28;20118;-71
2022/07/05 09:43:15;;;;;;;5.38;3.90;;;;;;;;;;4936592;28;20023;-73
2022/07/05 09:45:49;;;;;;;3.95;3.53;;;;;;;;;;4937908;28;20050;-73
2022/07/05 09:48:15;;;;;;;3.95;3.65;;;;;;;;;;4938992;28;20042;-73
2022/07/05 09:50:40;;;;;;;3.80;3.50;;;;;;;;;;4934232;28;20730;-73
2022/07/05 09:53:05;;;;;;;7.55;4.13;;;;;;;;;;4933720;28;20043;-73
2022/07/05 09:55:31;;;;;;;6.72;3.97;;;;;;;;;;4924261;29;20449;-73
2022/07/05 09:57:56;;;;;;;6.18;3.95;;;;;;;;;;4936085;28;20031;-73
2022/07/05 10:00:22;;;;;;;7.47;3.70;;;;;;;;;;5036912;28;20025;-72
2022/07/05 10:03:00;;;;;;;3.78;3.28;;;;;;;;;;5042642;28;20424;-72
2022/07/05 10:05:27;;;;;;;8.80;3.88;;;;;;;;;;5039192;28;20028;-71
2022/07/05 10:07:53;;;;;;;6.20;3.78;;;;;;;;;;5035196;28;20451;-71
2022/07/05 10:10:19;;;;;;;5.38;3.58;;;;;;;;;;5036698;28;21420;-71
2022/07/05 10:12:46;;;;;;;5.50;3.80;;;;;;;;;;5039603;28;20412;-73
2022/07/05 10:15:13;;;;;;;3.92;3.63;;;;;;;;;;5039707;28;20119;-72
2022/07/05 10:17:40;;;;;;;5.63;4.22;;;;;;;;;;5039568;28;20029;-72
2022/07/05 10:20:11;;;;;;;4.10;3.70;;;;;;;;;;5040628;28;20028;-71
2022/07/05 10:22:36;;;;;;;6.07;4.20;;;;;;;;;;5041215;28;20013;-73
2022/07/05 10:25:02;;;;;;;7.88;4.78;;;;;;;;;;5040140;28;20511;-72
2022/07/05 10:27:27;;;;;;;8.25;5.25;;;;;;;;;;5039568;28;20500;-74
2022/07/05 10:29:53;;;;;;;7.10;4.15;;;;;;;;;;5040431;28;20025;-71
2022/07/05 10:32:19;;;;;;;7.80;4.30;;;;;;;;;;5041053;28;22491;-72
2022/07/05 10:34:46;;;;;;;10.02;4.20;;;;;;;;;;5040698;28;20028;-71
2022/07/05 10:37:11;;;;;;;6.90;4.20;;;;;;;;;;5042147;28;20021;-71
2022/07/05 10:39:37;;;;;;;4.55;4.15;;;;;;;;;;5042439;28;20082;-71
2022/07/05 10:42:03;;;;;;;5.18;4.30;;;;;;;;;;5041398;28;20459;-71
2022/07/05 10:44:32;;;;;;;6.05;4.65;;;;;;;;;;5041999;28;20880;-73
2022/07/05 10:47:11;;;;;;;4.80;4.30;;;;;;;;;;5041444;28;20025;-74
2022/07/05 10:49:37;;;;;;;6.47;4.28;;;;;;;;;;5029998;28;20025;-72
2022/07/05 10:52:02;;;;;;;10.18;4.38;;;;;;;;;;5041699;28;20057;-73
2022/07/05 10:54:28;;;;;;;6.57;4.40;;;;;;;;;;5027985;28;20079;-73
2022/07/05 10:57:19;;;;;;;6.57;4.20;;;;;;;;;;5040205;28;20087;-74
2022/07/05 11:00:03;;;;;;;6.20;5.13;;;;;;;;;;5035816;28;20037;-73
2022/07/05 11:02:29;;;;;;;7.28;3.97;;;;;;;;;;5034413;28;20032;-74
2022/07/05 11:04:55;;;;;;;6.05;3.97;;;;;;;;;;5035404;28;20341;-72
2022/07/05 11:07:50;;;;;;;4.68;3.97;;;;;;;;;;5041246;28;20033;-72
2022/07/05 11:10:16;;;;;;;7.60;4.68;;;;;;;;;;5021025;28;20033;-73
2022/07/05 11:12:41;;;;;;;4.85;4.00;;;;;;;;;;5036316;28;20326;-72
2022/07/05 11:15:10;;;;;;;8.50;4.50;;;;;;;;;;5034271;28;20137;-72
2022/07/05 11:17:36;;;;;;;4.20;3.80;;;;;;;;;;5040979;28;20899;-72
2022/07/05 11:20:02;;;;;;;5.25;3.92;;;;;;;;;;5041551;28;20031;-73
2022/07/05 11:22:27;;;;;;;10.35;4.47;;;;;;;;;;5041259;28;20024;-74
2022/07/05 11:24:53;;;;;;;4.65;3.95;;;;;;;;;;5040808;28;20444;-70
2022/07/05 11:27:18;;;;;;;6.90;4.57;;;;;;;;;;5041992;28;20044;-74
2022/07/05 11:29:43;;;;;;;4.43;3.88;;;;;;;;;;5040074;28;20017;-73
2022/07/05 11:32:10;;;;;;;4.30;4.00;;;;;;;;;;5041368;28;20406;-73
2022/07/05 11:34:36;;;;;;;4.13;3.83;;;;;;;;;;5031287;28;20490;-73
2022/07/05 11:37:14;;;;;;;5.68;3.92;;;;;;;;;;5039088;28;20058;-71
2022/07/05 11:39:40;;;;;;;6.97;4.45;;;;;;;;;;5030257;28;20021;-73
2022/07/05 11:42:05;;;;;;;8.30;4.15;;;;;;;;;;5037210;28;20094;-73
2022/07/05 11:44:34;;;;;;;9.40;4.53;;;;;;;;;;5026752;28;20032;-75
2022/07/05 11:47:00;;;;;;;4.78;4.38;;;;;;;;;;5040372;28;20113;-73
2022/07/05 11:49:26;;;;;;;5.03;4.30;;;;;;;;;;5040047;28;20021;-71
2022/07/05 11:52:01;;;;;;;4.72;4.18;;;;;;;;;;5040382;28;20053;-71
2022/07/05 11:54:28;;;;;;;4.53;4.10;;;;;;;;;;5044051;28;21073;-74
2022/07/05 11:56:53;;;;;;;4.55;4.00;;;;;;;;;;5031111;28;20126;-73
2022/07/05 11:59:20;;;;;;;5.22;4.53;;;;;;;;;;5041158;28;20444;-73
2022/07/05 12:01:45;;;;;;;5.20;4.32;;;;;;;;;;5045050;28;20036;-71
2022/07/05 12:04:11;;;;;;;5.47;4.28;;;;;;;;;;5044662;28;20037;-73
2022/07/05 12:06:42;;;;;;;4.97;4.50;;;;;;;;;;5043373;28;20033;-71
2022/07/05 12:09:07;;;;;;;6.15;4.70;;;;;;;;;;5043714;28;20021;-71
2022/07/05 12:14:21;;;;;;;5.20;4.45;;;;;;;;;;5045134;28;20087;-72
2022/07/05 12:16:46;;;;;;;9.38;4.40;;;;;;;;;;5043774;28;20017;-74
2022/07/05 12:19:11;;;;;;;8.45;4.32;;;;;;;;;;5044146;28;20083;-72
2022/07/05 12:21:37;;;;;;;8.40;4.40;;;;;;;;;;5044760;28;20033;-71
2022/07/05 12:24:02;;;;;;;4.95;4.50;;;;;;;;;;5030977;28;20032;-74
2022/07/05 12:26:28;;;;;;;6.95;4.57;;;;;;;;;;5044435;28;20031;-72
2022/07/05 12:28:53;;;;;;;6.20;4.40;;;;;;;;;;5033515;28;20039;-73
2022/07/05 12:31:18;;;;;;;6.88;4.47;;;;;;;;;;5043478;28;20344;-72
2022/07/05 12:33:44;;;;;;;6.72;4.50;;;;;;;;;;5044831;28;20128;-73
2022/07/05 12:36:16;;;;;;;6.85;4.20;;;;;;;;;;5044072;28;20333;-74
2022/07/05 12:38:42;;;;;;;5.80;4.80;;;;;;;;;;5042605;28;20021;-74
2022/07/05 12:41:08;;;;;;;5.97;4.30;;;;;;;;;;5042691;28;20036;-74
2022/07/05 12:43:47;;;;;;;8.82;4.20;;;;;;;;;;5035036;28;20100;-75
2022/07/05 12:46:12;;;;;;;6.50;4.70;;;;;;;;;;5040107;28;20032;-73
2022/07/05 12:48:38;;;;;;;4.65;4.25;;;;;;;;;;5042579;28;20032;-72
2022/07/05 12:51:05;;;;;;;4.55;4.18;;;;;;;;;;5044376;28;20029;-76
2022/07/05 12:59:03;;;;;;;6.38;4.75;;;;;;;;;;5044202;28;20043;-74
2022/07/05 13:01:34;;;;;;;8.05;4.50;;;;;;;;;;5042529;28;20017;-77
2022/07/05 13:04:10;;;;;;;4.85;4.32;;;;;;;;;;5028652;28;20031;-75
2022/07/05 13:06:55;;;;;;;4.32;3.92;;;;;;;;;;5036532;28;20041;-76
2022/07/05 13:09:32;;;;;;;4.65;4.22;;;;;;;;;;5029321;28;20060;-74
2022/07/05 13:12:07;;;;;;;10.98;5.13;;;;;;;;;;5031813;28;20376;-75
2022/07/05 13:14:32;;;;;;;8.90;4.78;;;;;;;;;;5035373;28;20170;-72
2022/07/05 13:16:58;;;;;;;4.72;4.32;;;;;;;;;;5028480;28;20423;-72
2022/07/05 13:19:23;;;;;;;4.65;4.25;;;;;;;;;;5028506;28;20039;-75
2022/07/05 13:21:48;;;;;;;5.10;4.20;;;;;;;;;;5029067;28;20029;-74
2022/07/05 13:24:14;;;;;;;4.80;4.27;;;;;;;;;;5028842;28;20288;-74
2022/07/05 13:26:39;;;;;;;7.35;5.28;;;;;;;;;;5024356;28;20279;-75
2022/07/05 13:29:04;;;;;;;5.85;4.50;;;;;;;;;;5042362;28;20112;-75
2022/07/05 13:31:30;;;;;;;4.93;4.43;;;;;;;;;;5042631;28;20468;-75
2022/07/05 13:33:56;;;;;;;6.95;5.05;;;;;;;;;;5042054;28;20041;-75
2022/07/05 13:36:21;;;;;;;5.22;4.40;;;;;;;;;;5041052;28;20189;-74
2022/07/05 13:38:47;;;;;;;4.97;4.50;;;;;;;;;;5037061;28;20059;-76
2022/07/05 13:41:12;;;;;;;5.22;4.22;;;;;;;;;;5027318;28;20025;-74
2022/07/05 13:43:38;;;;;;;5.03;4.53;;;;;;;;;;5034853;28;20025;-73
2022/07/05 13:46:03;;;;;;;5.38;4.88;;;;;;;;;;5042338;28;20120;-73
2022/07/05 13:48:29;;;;;;;5.13;4.40;;;;;;;;;;5043000;28;20371;-71
2022/07/05 13:50:54;;;;;;;7.00;4.60;;;;;;;;;;5042061;28;20032;-74
2022/07/05 13:53:20;;;;;;;5.30;4.80;;;;;;;;;;5042243;28;20048;-72
2022/07/05 13:55:45;;;;;;;8.07;4.95;;;;;;;;;;5042968;28;20016;-72
2022/07/05 13:58:10;;;;;;;7.88;5.03;;;;;;;;;;5042464;28;20029;-72
2022/07/05 14:00:36;;;;;;;4.75;4.40;;;;;;;;;;5045199;28;20024;-73
2022/07/05 14:03:01;;;;;;;5.18;4.68;;;;;;;;;;5022790;28;20021;-73
2022/07/05 14:05:26;;;;;;;5.50;4.50;;;;;;;;;;5022153;28;20106;-74
2022/07/05 14:07:52;;;;;;;8.68;5.32;;;;;;;;;;5028264;28;20137;-73
2022/07/05 14:10:17;;;;;;;6.13;4.97;;;;;;;;;;5026137;28;20043;-72
2022/07/05 14:12:43;;;;;;;6.50;5.07;;;;;;;;;;5027627;28;20030;-75
2022/07/05 14:15:08;;;;;;;4.95;4.55;;;;;;;;;;5013273;28;20037;-71
2022/07/05 14:17:34;;;;;;;5.10;4.70;;;;;;;;;;5016045;28;20037;-73
2022/07/05 14:19:59;;;;;;;6.60;5.25;;;;;;;;;;5025531;28;20425;-74
2022/07/05 14:22:25;;;;;;;6.60;5.10;;;;;;;;;;5026732;28;20033;-73
2022/07/05 14:24:50;;;;;;;7.80;5.65;;;;;;;;;;5018730;28;20036;-73
2022/07/05 14:27:15;;;;;;;7.53;5.60;;;;;;;;;;5023554;28;20450;-74
2022/07/05 14:29:41;;;;;;;8.23;5.53;;;;;;;;;;5025832;28;20033;-73
2022/07/05 14:32:07;;;;;;;8.55;5.88;;;;;;;;;;5011391;28;20056;-76
2022/07/05 14:34:33;;;;;;;6.20;5.70;;;;;;;;;;5026060;28;20511;-72
2022/07/05 14:36:59;;;;;;;7.28;5.63;;;;;;;;;;5026137;28;20114;-73
2022/07/05 14:39:24;;;;;;;7.20;5.70;;;;;;;;;;5026112;28;20013;-73